sensor_id;sensor_type;location;lat;lon;timestamp;P1;durP1;ratioP1;P2;durP2;ratioP2
24873;SDS011;12945;42.648;23.370;2022-08-19T00:02:24;8.20;;;5.60;;
24873;SDS011;12945;42.648;23.370;2022-08-19T00:04:49;6.82;;;5.47;;
24873;SDS011;12945;42.648;23.370;2022-08-19T00:07:17;9.32;;;5.78;;
24873;SDS011;12945;42.648;23.370;2022-08-19T00:09:43;11.65;;;6.15;;
24873;SDS011;12945;42.648;23.370;2022-08-19T00:12:08;8.77;;;6.07;;
24873;SDS011;12945;42.648;23.370;2022-08-19T00:14:33;7.50;;;6.70;;
24873;SDS011;12945;42.648;23.370;2022-08-19T00:16:59;6.72;;;5.53;;
24873;SDS011;12945;42.648;23.370;2022-08-19T00:19:25;9.02;;;6.32;;
24873;SDS011;12945;42.648;23.370;2022-08-19T00:21:50;8.32;;;6.20;;
24873;SDS011;12945;42.648;23.370;2022-08-19T00:24:16;11.15;;;6.65;;
24873;SDS011;12945;42.648;23.370;2022-08-19T00:26:41;8.32;;;6.18;;
24873;SDS011;12945;42.648;23.370;2022-08-19T00:29:08;8.98;;;6.20;;
24873;SDS011;12945;42.648;23.370;2022-08-19T00:31:34;8.07;;;6.32;;
24873;SDS011;12945;42.648;23.370;2022-08-19T00:33:59;9.77;;;6.32;;
24873;SDS011;12945;42.648;23.370;2022-08-19T00:36:25;9.57;;;6.32;;
24873;SDS011;12945;42.648;23.370;2022-08-19T00:38:50;13.07;;;6.63;;
24873;SDS011;12945;42.648;23.370;2022-08-19T00:41:19;6.65;;;5.88;;
24873;SDS011;12945;42.648;23.370;2022-08-19T00:44:04;8.07;;;6.47;;
24873;SDS011;12945;42.648;23.370;2022-08-19T00:46:30;6.80;;;6.10;;
24873;SDS011;12945;42.648;23.370;2022-08-19T00:48:57;6.70;;;6.05;;
24873;SDS011;12945;42.648;23.370;2022-08-19T00:51:24;7.93;;;6.60;;
24873;SDS011;12945;42.648;23.370;2022-08-19T00:53:51;14.38;;;5.80;;
24873;SDS011;12945;42.648;23.370;2022-08-19T00:56:16;9.05;;;6.28;;
24873;SDS011;12945;42.648;23.370;2022-08-19T00:58:43;7.75;;;6.38;;
24873;SDS011;12945;42.648;23.370;2022-08-19T01:01:08;10.52;;;6.28;;
24873;SDS011;12945;42.648;23.370;2022-08-19T01:03:34;11.05;;;7.18;;
24873;SDS011;12945;42.648;23.370;2022-08-19T01:05:59;10.02;;;6.47;;
24873;SDS011;12945;42.648;23.370;2022-08-19T01:08:25;7.63;;;6.00;;
24873;SDS011;12945;42.648;23.370;2022-08-19T01:10:54;13.45;;;6.45;;
24873;SDS011;12945;42.648;23.370;2022-08-19T01:13:21;7.22;;;5.78;;
24873;SDS011;12945;42.648;23.370;2022-08-19T01:15:55;10.48;;;5.85;;
24873;SDS011;12945;42.648;23.370;2022-08-19T01:18:21;8.85;;;5.72;;
24873;SDS011;12945;42.648;23.370;2022-08-19T01:20:46;6.95;;;6.25;;
24873;SDS011;12945;42.648;23.370;2022-08-19T01:23:12;8.35;;;6.10;;
24873;SDS011;12945;42.648;23.370;2022-08-19T01:25:43;7.22;;;6.30;;
24873;SDS011;12945;42.648;23.370;2022-08-19T01:28:14;9.35;;;6.40;;
24873;SDS011;12945;42.648;23.370;2022-08-19T01:30:39;9.18;;;6.22;;
24873;SDS011;12945;42.648;23.370;2022-08-19T01:33:05;10.60;;;6.47;;
24873;SDS011;12945;42.648;23.370;2022-08-19T01:35:31;7.82;;;6.07;;
24873;SDS011;12945;42.648;23.370;2022-08-19T01:38:01;8.52;;;6.25;;
24873;SDS011;12945;42.648;23.370;2022-08-19T01:40:27;7.70;;;6.10;;
24873;SDS011;12945;42.648;23.370;2022-08-19T01:42:54;9.18;;;6.43;;
24873;SDS011;12945;42.648;23.370;2022-08-19T01:45:20;8.27;;;6.75;;
24873;SDS011;12945;42.648;23.370;2022-08-19T01:47:45;8.82;;;6.30;;
24873;SDS011;12945;42.648;23.370;2022-08-19T01:50:11;11.52;;;6.20;;
24873;SDS011;12945;42.648;23.370;2022-08-19T01:52:37;10.93;;;6.82;;
24873;SDS011;12945;42.648;23.370;2022-08-19T01:55:03;8.93;;;6.60;;
24873;SDS011;12945;42.648;23.370;2022-08-19T01:57:28;9.05;;;6.78;;
24873;SDS011;12945;42.648;23.370;2022-08-19T01:59:54;7.70;;;6.63;;
24873;SDS011;12945;42.648;23.370;2022-08-19T02:02:19;12.20;;;6.78;;
24873;SDS011;12945;42.648;23.370;2022-08-19T02:04:44;10.82;;;6.95;;
24873;SDS011;12945;42.648;23.370;2022-08-19T02:07:10;7.53;;;6.70;;
24873;SDS011;12945;42.648;23.370;2022-08-19T02:09:36;9.40;;;7.22;;
24873;SDS011;12945;42.648;23.370;2022-08-19T02:12:01;9.35;;;7.25;;
24873;SDS011;12945;42.648;23.370;2022-08-19T02:14:26;7.80;;;6.57;;
24873;SDS011;12945;42.648;23.370;2022-08-19T02:16:52;10.80;;;6.93;;
24873;SDS011;12945;42.648;23.370;2022-08-19T02:19:17;9.55;;;6.97;;
24873;SDS011;12945;42.648;23.370;2022-08-19T02:21:43;8.55;;;6.82;;
24873;SDS011;12945;42.648;23.370;2022-08-19T02:24:09;10.70;;;7.15;;
24873;SDS011;12945;42.648;23.370;2022-08-19T02:26:34;11.10;;;7.00;;
24873;SDS011;12945;42.648;23.370;2022-08-19T02:28:59;10.48;;;7.15;;
24873;SDS011;12945;42.648;23.370;2022-08-19T02:31:26;11.30;;;7.32;;
24873;SDS011;12945;42.648;23.370;2022-08-19T02:33:53;8.68;;;6.93;;
24873;SDS011;12945;42.648;23.370;2022-08-19T02:36:20;10.48;;;7.05;;
24873;SDS011;12945;42.648;23.370;2022-08-19T02:38:45;9.68;;;6.82;;
24873;SDS011;12945;42.648;23.370;2022-08-19T02:41:18;9.77;;;6.40;;
24873;SDS011;12945;42.648;23.370;2022-08-19T02:43:44;8.82;;;7.28;;
24873;SDS011;12945;42.648;23.370;2022-08-19T02:48:37;9.38;;;7.07;;
24873;SDS011;12945;42.648;23.370;2022-08-19T02:51:03;10.55;;;7.30;;
24873;SDS011;12945;42.648;23.370;2022-08-19T02:53:28;8.25;;;6.47;;
24873;SDS011;12945;42.648;23.370;2022-08-19T02:55:54;13.43;;;7.38;;
24873;SDS011;12945;42.648;23.370;2022-08-19T02:58:20;7.88;;;6.78;;
24873;SDS011;12945;42.648;23.370;2022-08-19T03:00:47;10.00;;;7.20;;
24873;SDS011;12945;42.648;23.370;2022-08-19T03:03:13;13.77;;;7.60;;
24873;SDS011;12945;42.648;23.370;2022-08-19T03:05:39;10.88;;;7.57;;
24873;SDS011;12945;42.648;23.370;2022-08-19T03:08:05;11.70;;;7.30;;
24873;SDS011;12945;42.648;23.370;2022-08-19T03:10:31;9.30;;;7.00;;
24873;SDS011;12945;42.648;23.370;2022-08-19T03:12:56;10.85;;;7.05;;
24873;SDS011;12945;42.648;23.370;2022-08-19T03:15:21;11.93;;;7.47;;
24873;SDS011;12945;42.648;23.370;2022-08-19T03:17:46;13.70;;;7.53;;
24873;SDS011;12945;42.648;23.370;2022-08-19T03:20:12;9.75;;;7.25;;
24873;SDS011;12945;42.648;23.370;2022-08-19T03:22:37;14.75;;;7.85;;
24873;SDS011;12945;42.648;23.370;2022-08-19T03:25:03;13.95;;;7.95;;
24873;SDS011;12945;42.648;23.370;2022-08-19T03:27:28;8.80;;;7.60;;
24873;SDS011;12945;42.648;23.370;2022-08-19T03:29:54;9.32;;;7.75;;
24873;SDS011;12945;42.648;23.370;2022-08-19T03:32:20;10.50;;;7.32;;
24873;SDS011;12945;42.648;23.370;2022-08-19T03:34:46;11.10;;;7.25;;
24873;SDS011;12945;42.648;23.370;2022-08-19T03:37:12;10.07;;;8.07;;
24873;SDS011;12945;42.648;23.370;2022-08-19T03:39:38;14.02;;;7.10;;
24873;SDS011;12945;42.648;23.370;2022-08-19T03:42:04;14.25;;;7.53;;
24873;SDS011;12945;42.648;23.370;2022-08-19T03:44:30;18.25;;;7.88;;
24873;SDS011;12945;42.648;23.370;2022-08-19T03:46:57;9.73;;;7.68;;
24873;SDS011;12945;42.648;23.370;2022-08-19T03:49:24;14.48;;;8.32;;
24873;SDS011;12945;42.648;23.370;2022-08-19T03:51:49;13.45;;;8.10;;
24873;SDS011;12945;42.648;23.370;2022-08-19T03:54:17;16.08;;;8.43;;
24873;SDS011;12945;42.648;23.370;2022-08-19T03:56:43;11.05;;;7.93;;
24873;SDS011;12945;42.648;23.370;2022-08-19T03:59:09;11.15;;;8.05;;
24873;SDS011;12945;42.648;23.370;2022-08-19T04:01:35;11.75;;;7.07;;
24873;SDS011;12945;42.648;23.370;2022-08-19T04:04:01;15.73;;;8.00;;
24873;SDS011;12945;42.648;23.370;2022-08-19T04:06:31;14.23;;;8.20;;
24873;SDS011;12945;42.648;23.370;2022-08-19T04:08:58;12.68;;;8.23;;
24873;SDS011;12945;42.648;23.370;2022-08-19T04:11:25;10.88;;;8.63;;
24873;SDS011;12945;42.648;23.370;2022-08-19T04:13:51;8.27;;;7.47;;
24873;SDS011;12945;42.648;23.370;2022-08-19T04:16:17;13.07;;;7.78;;
24873;SDS011;12945;42.648;23.370;2022-08-19T04:18:43;16.42;;;7.50;;
24873;SDS011;12945;42.648;23.370;2022-08-19T04:21:08;10.40;;;7.50;;
24873;SDS011;12945;42.648;23.370;2022-08-19T04:23:40;13.20;;;7.65;;
24873;SDS011;12945;42.648;23.370;2022-08-19T04:26:05;10.10;;;7.13;;
24873;SDS011;12945;42.648;23.370;2022-08-19T04:28:30;12.10;;;7.45;;
24873;SDS011;12945;42.648;23.370;2022-08-19T04:30:56;11.15;;;7.38;;
24873;SDS011;12945;42.648;23.370;2022-08-19T04:33:23;14.32;;;7.97;;
24873;SDS011;12945;42.648;23.370;2022-08-19T04:35:49;17.92;;;8.00;;
24873;SDS011;12945;42.648;23.370;2022-08-19T04:38:15;14.73;;;7.53;;
24873;SDS011;12945;42.648;23.370;2022-08-19T04:40:41;17.80;;;7.55;;
24873;SDS011;12945;42.648;23.370;2022-08-19T04:43:26;11.95;;;7.93;;
24873;SDS011;12945;42.648;23.370;2022-08-19T04:45:51;14.80;;;8.02;;
24873;SDS011;12945;42.648;23.370;2022-08-19T04:48:16;18.08;;;8.02;;
24873;SDS011;12945;42.648;23.370;2022-08-19T04:50:48;12.32;;;8.43;;
24873;SDS011;12945;42.648;23.370;2022-08-19T04:53:13;12.88;;;7.95;;
24873;SDS011;12945;42.648;23.370;2022-08-19T04:55:40;11.02;;;7.13;;
24873;SDS011;12945;42.648;23.370;2022-08-19T04:58:05;12.48;;;7.75;;
24873;SDS011;12945;42.648;23.370;2022-08-19T05:00:36;11.73;;;7.75;;
24873;SDS011;12945;42.648;23.370;2022-08-19T05:03:15;15.90;;;7.78;;
24873;SDS011;12945;42.648;23.370;2022-08-19T05:05:42;9.38;;;7.72;;
24873;SDS011;12945;42.648;23.370;2022-08-19T05:08:08;12.23;;;7.90;;
24873;SDS011;12945;42.648;23.370;2022-08-19T05:10:37;13.90;;;8.02;;
24873;SDS011;12945;42.648;23.370;2022-08-19T05:13:05;13.57;;;7.93;;
24873;SDS011;12945;42.648;23.370;2022-08-19T05:15:31;9.07;;;7.03;;
24873;SDS011;12945;42.648;23.370;2022-08-19T05:17:56;14.75;;;7.65;;
24873;SDS011;12945;42.648;23.370;2022-08-19T05:20:40;13.52;;;7.93;;
24873;SDS011;12945;42.648;23.370;2022-08-19T05:23:24;13.93;;;8.07;;
24873;SDS011;12945;42.648;23.370;2022-08-19T05:25:50;17.77;;;8.50;;
24873;SDS011;12945;42.648;23.370;2022-08-19T05:28:15;15.65;;;8.38;;
24873;SDS011;12945;42.648;23.370;2022-08-19T05:30:41;15.13;;;8.45;;
24873;SDS011;12945;42.648;23.370;2022-08-19T05:33:09;10.43;;;8.20;;
24873;SDS011;12945;42.648;23.370;2022-08-19T05:35:37;12.40;;;8.88;;
24873;SDS011;12945;42.648;23.370;2022-08-19T05:38:02;14.48;;;9.65;;
24873;SDS011;12945;42.648;23.370;2022-08-19T05:40:29;17.70;;;8.88;;
24873;SDS011;12945;42.648;23.370;2022-08-19T05:42:55;12.00;;;8.80;;
24873;SDS011;12945;42.648;23.370;2022-08-19T05:45:21;16.77;;;9.27;;
24873;SDS011;12945;42.648;23.370;2022-08-19T05:47:46;16.88;;;9.00;;
24873;SDS011;12945;42.648;23.370;2022-08-19T05:50:12;16.60;;;8.80;;
24873;SDS011;12945;42.648;23.370;2022-08-19T05:52:38;14.15;;;8.52;;
24873;SDS011;12945;42.648;23.370;2022-08-19T05:55:03;11.60;;;8.70;;
24873;SDS011;12945;42.648;23.370;2022-08-19T05:57:29;17.50;;;9.05;;
24873;SDS011;12945;42.648;23.370;2022-08-19T05:59:55;16.45;;;8.57;;
24873;SDS011;12945;42.648;23.370;2022-08-19T06:02:21;11.85;;;7.72;;
24873;SDS011;12945;42.648;23.370;2022-08-19T06:04:47;15.85;;;8.40;;
24873;SDS011;12945;42.648;23.370;2022-08-19T06:07:12;19.25;;;7.75;;
24873;SDS011;12945;42.648;23.370;2022-08-19T06:09:37;14.10;;;7.72;;
24873;SDS011;12945;42.648;23.370;2022-08-19T06:12:03;14.48;;;7.45;;
24873;SDS011;12945;42.648;23.370;2022-08-19T06:14:31;13.35;;;8.60;;
24873;SDS011;12945;42.648;23.370;2022-08-19T06:16:56;11.35;;;7.22;;
24873;SDS011;12945;42.648;23.370;2022-08-19T06:19:24;20.52;;;7.60;;
24873;SDS011;12945;42.648;23.370;2022-08-19T06:21:50;13.98;;;7.45;;
24873;SDS011;12945;42.648;23.370;2022-08-19T06:24:17;15.20;;;7.70;;
24873;SDS011;12945;42.648;23.370;2022-08-19T06:26:43;16.08;;;7.65;;
24873;SDS011;12945;42.648;23.370;2022-08-19T06:29:09;18.02;;;7.57;;
24873;SDS011;12945;42.648;23.370;2022-08-19T06:31:35;23.38;;;8.90;;
24873;SDS011;12945;42.648;23.370;2022-08-19T06:34:02;17.88;;;7.28;;
24873;SDS011;12945;42.648;23.370;2022-08-19T06:36:35;13.25;;;7.07;;
24873;SDS011;12945;42.648;23.370;2022-08-19T06:39:02;13.20;;;6.60;;
24873;SDS011;12945;42.648;23.370;2022-08-19T06:41:28;16.95;;;6.32;;
24873;SDS011;12945;42.648;23.370;2022-08-19T06:43:54;11.70;;;5.78;;
24873;SDS011;12945;42.648;23.370;2022-08-19T06:46:20;9.27;;;5.78;;
24873;SDS011;12945;42.648;23.370;2022-08-19T06:48:46;8.20;;;6.20;;
24873;SDS011;12945;42.648;23.370;2022-08-19T06:51:13;9.68;;;5.88;;
24873;SDS011;12945;42.648;23.370;2022-08-19T06:53:40;10.15;;;6.38;;
24873;SDS011;12945;42.648;23.370;2022-08-19T06:56:06;14.75;;;6.07;;
24873;SDS011;12945;42.648;23.370;2022-08-19T06:58:31;9.50;;;6.47;;
24873;SDS011;12945;42.648;23.370;2022-08-19T07:01:03;13.02;;;6.22;;
24873;SDS011;12945;42.648;23.370;2022-08-19T07:03:29;16.10;;;6.97;;
24873;SDS011;12945;42.648;23.370;2022-08-19T07:05:56;11.38;;;7.18;;
24873;SDS011;12945;42.648;23.370;2022-08-19T07:08:21;13.63;;;6.55;;
24873;SDS011;12945;42.648;23.370;2022-08-19T07:10:46;16.63;;;6.65;;
24873;SDS011;12945;42.648;23.370;2022-08-19T07:13:13;15.35;;;6.78;;
24873;SDS011;12945;42.648;23.370;2022-08-19T07:15:38;14.73;;;6.88;;
24873;SDS011;12945;42.648;23.370;2022-08-19T07:18:03;13.38;;;7.60;;
24873;SDS011;12945;42.648;23.370;2022-08-19T07:20:29;20.75;;;6.35;;
24873;SDS011;12945;42.648;23.370;2022-08-19T07:22:55;16.27;;;6.35;;
24873;SDS011;12945;42.648;23.370;2022-08-19T07:25:20;18.45;;;6.35;;
24873;SDS011;12945;42.648;23.370;2022-08-19T07:27:48;15.65;;;6.43;;
24873;SDS011;12945;42.648;23.370;2022-08-19T07:30:14;18.90;;;7.20;;
24873;SDS011;12945;42.648;23.370;2022-08-19T07:32:39;14.55;;;6.70;;
24873;SDS011;12945;42.648;23.370;2022-08-19T07:35:05;15.25;;;7.35;;
24873;SDS011;12945;42.648;23.370;2022-08-19T07:37:31;15.23;;;6.43;;
24873;SDS011;12945;42.648;23.370;2022-08-19T07:39:56;19.83;;;7.25;;
24873;SDS011;12945;42.648;23.370;2022-08-19T07:42:23;13.18;;;6.63;;
24873;SDS011;12945;42.648;23.370;2022-08-19T07:44:48;13.95;;;6.18;;
24873;SDS011;12945;42.648;23.370;2022-08-19T07:47:14;14.98;;;6.78;;
24873;SDS011;12945;42.648;23.370;2022-08-19T07:49:40;12.70;;;6.30;;
24873;SDS011;12945;42.648;23.370;2022-08-19T07:52:08;14.07;;;6.63;;
24873;SDS011;12945;42.648;23.370;2022-08-19T07:54:34;11.30;;;5.90;;
24873;SDS011;12945;42.648;23.370;2022-08-19T07:57:00;10.48;;;5.90;;
24873;SDS011;12945;42.648;23.370;2022-08-19T07:59:26;13.35;;;6.38;;
24873;SDS011;12945;42.648;23.370;2022-08-19T08:01:53;13.15;;;6.68;;
24873;SDS011;12945;42.648;23.370;2022-08-19T08:04:19;16.05;;;6.47;;
24873;SDS011;12945;42.648;23.370;2022-08-19T08:07:03;17.02;;;6.97;;
24873;SDS011;12945;42.648;23.370;2022-08-19T08:09:47;13.93;;;7.10;;
24873;SDS011;12945;42.648;23.370;2022-08-19T08:12:17;16.23;;;5.83;;
24873;SDS011;12945;42.648;23.370;2022-08-19T08:14:47;15.35;;;7.30;;
24873;SDS011;12945;42.648;23.370;2022-08-19T08:19:39;11.23;;;6.50;;
24873;SDS011;12945;42.648;23.370;2022-08-19T08:22:06;7.53;;;5.55;;
24873;SDS011;12945;42.648;23.370;2022-08-19T08:24:32;12.30;;;5.95;;
24873;SDS011;12945;42.648;23.370;2022-08-19T08:26:59;9.80;;;5.57;;
24873;SDS011;12945;42.648;23.370;2022-08-19T08:29:25;14.23;;;6.03;;
24873;SDS011;12945;42.648;23.370;2022-08-19T08:31:50;10.50;;;6.03;;
24873;SDS011;12945;42.648;23.370;2022-08-19T08:34:16;15.63;;;6.45;;
24873;SDS011;12945;42.648;23.370;2022-08-19T08:36:42;17.10;;;5.90;;
24873;SDS011;12945;42.648;23.370;2022-08-19T08:39:10;11.43;;;7.00;;
24873;SDS011;12945;42.648;23.370;2022-08-19T08:44:06;14.05;;;6.15;;
24873;SDS011;12945;42.648;23.370;2022-08-19T08:46:36;16.38;;;6.45;;
24873;SDS011;12945;42.648;23.370;2022-08-19T08:53:58;10.87;;;5.53;;
24873;SDS011;12945;42.648;23.370;2022-08-19T08:56:24;8.93;;;4.47;;
24873;SDS011;12945;42.648;23.370;2022-08-19T08:59:00;8.27;;;4.68;;
24873;SDS011;12945;42.648;23.370;2022-08-19T09:01:26;7.07;;;4.25;;
24873;SDS011;12945;42.648;23.370;2022-08-19T09:03:52;6.97;;;4.50;;
24873;SDS011;12945;42.648;23.370;2022-08-19T09:09:10;9.55;;;5.28;;
24873;SDS011;12945;42.648;23.370;2022-08-19T09:11:55;6.30;;;4.28;;
24873;SDS011;12945;42.648;23.370;2022-08-19T09:17:07;10.57;;;5.28;;
24873;SDS011;12945;42.648;23.370;2022-08-19T09:19:33;19.45;;;6.43;;
24873;SDS011;12945;42.648;23.370;2022-08-19T09:21:58;15.00;;;5.35;;
24873;SDS011;12945;42.648;23.370;2022-08-19T09:24:25;14.45;;;4.20;;
24873;SDS011;12945;42.648;23.370;2022-08-19T09:26:51;6.85;;;3.45;;
24873;SDS011;12945;42.648;23.370;2022-08-19T09:29:17;9.27;;;3.95;;
24873;SDS011;12945;42.648;23.370;2022-08-19T09:31:43;5.75;;;3.42;;
24873;SDS011;12945;42.648;23.370;2022-08-19T09:34:08;4.95;;;3.47;;
24873;SDS011;12945;42.648;23.370;2022-08-19T09:36:33;5.00;;;3.55;;
24873;SDS011;12945;42.648;23.370;2022-08-19T09:39:01;3.72;;;3.22;;
24873;SDS011;12945;42.648;23.370;2022-08-19T09:41:26;6.15;;;3.55;;
24873;SDS011;12945;42.648;23.370;2022-08-19T09:43:52;5.95;;;3.70;;
24873;SDS011;12945;42.648;23.370;2022-08-19T09:46:18;5.50;;;3.40;;
24873;SDS011;12945;42.648;23.370;2022-08-19T09:48:46;5.07;;;3.70;;
24873;SDS011;12945;42.648;23.370;2022-08-19T09:51:14;8.35;;;3.72;;
24873;SDS011;12945;42.648;23.370;2022-08-19T09:53:43;8.90;;;4.63;;
24873;SDS011;12945;42.648;23.370;2022-08-19T09:56:08;10.65;;;5.05;;
24873;SDS011;12945;42.648;23.370;2022-08-19T09:58:34;5.40;;;3.45;;
24873;SDS011;12945;42.648;23.370;2022-08-19T10:01:00;7.32;;;3.33;;
24873;SDS011;12945;42.648;23.370;2022-08-19T10:03:26;6.38;;;3.47;;
24873;SDS011;12945;42.648;23.370;2022-08-19T10:05:52;15.25;;;3.65;;
24873;SDS011;12945;42.648;23.370;2022-08-19T10:08:28;4.57;;;3.10;;
24873;SDS011;12945;42.648;23.370;2022-08-19T10:10:54;10.30;;;3.80;;
24873;SDS011;12945;42.648;23.370;2022-08-19T10:13:20;10.95;;;3.70;;
24873;SDS011;12945;42.648;23.370;2022-08-19T10:15:50;5.07;;;3.63;;
24873;SDS011;12945;42.648;23.370;2022-08-19T10:18:16;10.10;;;3.90;;
24873;SDS011;12945;42.648;23.370;2022-08-19T10:20:42;6.50;;;4.07;;
24873;SDS011;12945;42.648;23.370;2022-08-19T10:23:08;6.50;;;3.97;;
24873;SDS011;12945;42.648;23.370;2022-08-19T10:25:33;7.65;;;3.88;;
24873;SDS011;12945;42.648;23.370;2022-08-19T10:28:00;6.28;;;3.80;;
24873;SDS011;12945;42.648;23.370;2022-08-19T10:30:25;7.13;;;3.90;;
24873;SDS011;12945;42.648;23.370;2022-08-19T10:32:50;7.68;;;3.72;;
24873;SDS011;12945;42.648;23.370;2022-08-19T10:35:15;5.72;;;3.78;;
24873;SDS011;12945;42.648;23.370;2022-08-19T10:37:42;7.72;;;3.95;;
24873;SDS011;12945;42.648;23.370;2022-08-19T10:40:07;7.22;;;3.45;;
24873;SDS011;12945;42.648;23.370;2022-08-19T10:42:34;6.93;;;4.03;;
24873;SDS011;12945;42.648;23.370;2022-08-19T10:44:59;9.85;;;3.70;;
24873;SDS011;12945;42.648;23.370;2022-08-19T10:47:25;8.23;;;4.00;;
24873;SDS011;12945;42.648;23.370;2022-08-19T10:49:50;5.60;;;3.72;;
24873;SDS011;12945;42.648;23.370;2022-08-19T10:52:34;15.77;;;4.10;;
24873;SDS011;12945;42.648;23.370;2022-08-19T10:55:00;9.32;;;4.28;;
24873;SDS011;12945;42.648;23.370;2022-08-19T10:57:44;7.40;;;4.05;;
24873;SDS011;12945;42.648;23.370;2022-08-19T11:00:10;5.38;;;3.88;;
24873;SDS011;12945;42.648;23.370;2022-08-19T11:02:35;8.50;;;5.18;;
24873;SDS011;12945;42.648;23.370;2022-08-19T11:05:01;8.03;;;4.00;;
24873;SDS011;12945;42.648;23.370;2022-08-19T11:07:26;12.38;;;3.97;;
24873;SDS011;12945;42.648;23.370;2022-08-19T11:09:51;8.73;;;3.75;;
24873;SDS011;12945;42.648;23.370;2022-08-19T11:12:17;8.65;;;4.18;;
24873;SDS011;12945;42.648;23.370;2022-08-19T11:14:42;8.25;;;4.05;;
24873;SDS011;12945;42.648;23.370;2022-08-19T11:17:07;6.22;;;3.72;;
24873;SDS011;12945;42.648;23.370;2022-08-19T11:19:33;6.32;;;4.07;;
24873;SDS011;12945;42.648;23.370;2022-08-19T11:21:59;7.10;;;3.95;;
24873;SDS011;12945;42.648;23.370;2022-08-19T11:24:26;11.50;;;3.60;;
24873;SDS011;12945;42.648;23.370;2022-08-19T11:26:53;7.60;;;3.80;;
24873;SDS011;12945;42.648;23.370;2022-08-19T11:29:22;5.78;;;3.88;;
24873;SDS011;12945;42.648;23.370;2022-08-19T11:31:50;11.20;;;3.83;;
24873;SDS011;12945;42.648;23.370;2022-08-19T11:34:18;7.13;;;3.95;;
24873;SDS011;12945;42.648;23.370;2022-08-19T11:36:44;6.35;;;4.13;;
24873;SDS011;12945;42.648;23.370;2022-08-19T11:39:11;7.57;;;4.07;;
24873;SDS011;12945;42.648;23.370;2022-08-19T11:41:36;6.20;;;3.80;;
24873;SDS011;12945;42.648;23.370;2022-08-19T11:44:02;8.80;;;4.30;;
24873;SDS011;12945;42.648;23.370;2022-08-19T11:46:28;5.85;;;3.70;;
24873;SDS011;12945;42.648;23.370;2022-08-19T11:48:54;9.02;;;4.60;;
24873;SDS011;12945;42.648;23.370;2022-08-19T11:51:21;8.95;;;3.92;;
24873;SDS011;12945;42.648;23.370;2022-08-19T11:53:46;6.55;;;3.65;;
24873;SDS011;12945;42.648;23.370;2022-08-19T11:56:12;10.40;;;3.88;;
24873;SDS011;12945;42.648;23.370;2022-08-19T11:58:38;5.17;;;3.37;;
24873;SDS011;12945;42.648;23.370;2022-08-19T12:01:10;6.57;;;3.70;;
24873;SDS011;12945;42.648;23.370;2022-08-19T12:03:36;6.43;;;3.38;;
24873;SDS011;12945;42.648;23.370;2022-08-19T12:06:05;4.57;;;4.07;;
24873;SDS011;12945;42.648;23.370;2022-08-19T12:08:30;11.68;;;4.28;;
24873;SDS011;12945;42.648;23.370;2022-08-19T12:10:56;4.80;;;3.95;;
24873;SDS011;12945;42.648;23.370;2022-08-19T12:13:21;3.88;;;3.50;;
24873;SDS011;12945;42.648;23.370;2022-08-19T12:15:47;7.90;;;3.80;;
24873;SDS011;12945;42.648;23.370;2022-08-19T12:18:13;7.13;;;3.63;;
24873;SDS011;12945;42.648;23.370;2022-08-19T12:20:41;7.82;;;3.83;;
24873;SDS011;12945;42.648;23.370;2022-08-19T12:23:07;6.20;;;3.90;;
24873;SDS011;12945;42.648;23.370;2022-08-19T12:25:34;7.10;;;3.92;;
24873;SDS011;12945;42.648;23.370;2022-08-19T12:27:59;6.75;;;4.10;;
24873;SDS011;12945;42.648;23.370;2022-08-19T12:30:25;6.13;;;3.90;;
24873;SDS011;12945;42.648;23.370;2022-08-19T12:32:51;9.15;;;4.47;;
24873;SDS011;12945;42.648;23.370;2022-08-19T12:35:16;8.20;;;4.50;;
24873;SDS011;12945;42.648;23.370;2022-08-19T12:37:42;7.53;;;4.13;;
24873;SDS011;12945;42.648;23.370;2022-08-19T12:40:09;8.63;;;4.22;;
24873;SDS011;12945;42.648;23.370;2022-08-19T12:42:36;9.02;;;4.60;;
24873;SDS011;12945;42.648;23.370;2022-08-19T12:45:02;5.45;;;4.22;;
24873;SDS011;12945;42.648;23.370;2022-08-19T12:47:28;9.88;;;4.45;;
24873;SDS011;12945;42.648;23.370;2022-08-19T12:49:53;5.43;;;4.18;;
24873;SDS011;12945;42.648;23.370;2022-08-19T12:52:19;8.95;;;4.30;;
24873;SDS011;12945;42.648;23.370;2022-08-19T12:54:46;7.85;;;4.38;;
24873;SDS011;12945;42.648;23.370;2022-08-19T12:57:11;10.20;;;4.30;;
24873;SDS011;12945;42.648;23.370;2022-08-19T12:59:37;5.68;;;3.72;;
24873;SDS011;12945;42.648;23.370;2022-08-19T13:02:03;6.57;;;4.25;;
24873;SDS011;12945;42.648;23.370;2022-08-19T13:04:30;5.60;;;4.00;;
24873;SDS011;12945;42.648;23.370;2022-08-19T13:06:55;11.80;;;4.30;;
24873;SDS011;12945;42.648;23.370;2022-08-19T13:09:22;8.38;;;4.28;;
24873;SDS011;12945;42.648;23.370;2022-08-19T13:11:48;6.88;;;4.20;;
24873;SDS011;12945;42.648;23.370;2022-08-19T13:14:13;5.90;;;4.20;;
24873;SDS011;12945;42.648;23.370;2022-08-19T13:16:38;8.35;;;4.18;;
24873;SDS011;12945;42.648;23.370;2022-08-19T13:19:05;7.03;;;3.88;;
24873;SDS011;12945;42.648;23.370;2022-08-19T13:21:30;11.48;;;4.47;;
24873;SDS011;12945;42.648;23.370;2022-08-19T13:23:56;8.13;;;4.35;;
24873;SDS011;12945;42.648;23.370;2022-08-19T13:26:22;5.63;;;4.00;;
24873;SDS011;12945;42.648;23.370;2022-08-19T13:28:47;10.55;;;4.68;;
24873;SDS011;12945;42.648;23.370;2022-08-19T13:31:33;12.73;;;4.38;;
24873;SDS011;12945;42.648;23.370;2022-08-19T13:34:18;4.90;;;3.90;;
24873;SDS011;12945;42.648;23.370;2022-08-19T13:36:45;5.90;;;4.03;;
24873;SDS011;12945;42.648;23.370;2022-08-19T13:39:10;7.82;;;4.20;;
24873;SDS011;12945;42.648;23.370;2022-08-19T13:41:36;7.40;;;4.70;;
24873;SDS011;12945;42.648;23.370;2022-08-19T13:44:02;8.02;;;5.07;;
24873;SDS011;12945;42.648;23.370;2022-08-19T13:46:28;7.25;;;4.30;;
24873;SDS011;12945;42.648;23.370;2022-08-19T13:48:54;5.80;;;4.10;;
24873;SDS011;12945;42.648;23.370;2022-08-19T13:51:19;8.95;;;4.50;;
24873;SDS011;12945;42.648;23.370;2022-08-19T13:53:45;6.15;;;4.50;;
24873;SDS011;12945;42.648;23.370;2022-08-19T13:56:11;12.38;;;4.60;;
24873;SDS011;12945;42.648;23.370;2022-08-19T13:58:37;12.00;;;4.63;;
24873;SDS011;12945;42.648;23.370;2022-08-19T14:01:03;8.45;;;4.10;;
24873;SDS011;12945;42.648;23.370;2022-08-19T14:03:28;12.15;;;4.65;;
24873;SDS011;12945;42.648;23.370;2022-08-19T14:05:53;8.80;;;4.10;;
24873;SDS011;12945;42.648;23.370;2022-08-19T14:08:19;5.38;;;3.97;;
24873;SDS011;12945;42.648;23.370;2022-08-19T14:10:45;7.82;;;4.35;;
24873;SDS011;12945;42.648;23.370;2022-08-19T14:13:12;7.20;;;4.18;;
24873;SDS011;12945;42.648;23.370;2022-08-19T14:15:38;9.50;;;5.40;;
24873;SDS011;12945;42.648;23.370;2022-08-19T14:18:04;9.15;;;4.90;;
24873;SDS011;12945;42.648;23.370;2022-08-19T14:20:29;9.23;;;4.60;;
24873;SDS011;12945;42.648;23.370;2022-08-19T14:22:55;8.38;;;4.50;;
24873;SDS011;12945;42.648;23.370;2022-08-19T14:25:23;6.60;;;4.10;;
24873;SDS011;12945;42.648;23.370;2022-08-19T14:27:49;7.10;;;4.00;;
24873;SDS011;12945;42.648;23.370;2022-08-19T14:30:16;5.90;;;4.35;;
24873;SDS011;12945;42.648;23.370;2022-08-19T14:32:41;12.10;;;4.65;;
24873;SDS011;12945;42.648;23.370;2022-08-19T14:35:08;9.25;;;4.25;;
24873;SDS011;12945;42.648;23.370;2022-08-19T14:37:34;9.60;;;4.70;;
24873;SDS011;12945;42.648;23.370;2022-08-19T14:39:59;5.57;;;4.15;;
24873;SDS011;12945;42.648;23.370;2022-08-19T14:42:25;6.10;;;4.10;;
24873;SDS011;12945;42.648;23.370;2022-08-19T14:44:50;11.38;;;4.60;;